Airfield :
LOGIN :

Register | Disclaimer

   EN    FR    IT 

 










Legend :    VFR   Marginal VFR   IFR   Intensive IFR   Very Intensive IFR
Visi :
Ceiling :
>= 8 km
>= 3000ft
5 to 8 km
1000 to 3000 ft
1500m to 5 km
500 to 1000 ft
800 to 1500m
200 to 500 ft
< 800m
< 200 ft
Symbols :   Thunderstorms  Fog  Heavy snow  Heavy precipitations  Wind > 20 kt
SIGMETs :     Misc.  Thunderstorms  Icing  Turbulence  Mountain Waves  Volcanic Ashes







- Airport Elevation : 1260 ft
- IATA code : LDE
- Download approach charts


LFBT - Tarbes / Ossun

CURRENT METAR :
  • 212230Z AUTO VRB03KT CAVOK 17/15 Q1009 NOSIG

EXPIRED METARs :
  • 212200Z AUTO 06003KT 360V160 9999 BKN100 18/16 Q1009 NOSIG
  • 212130Z AUTO VRB03KT 9999 BKN100 BKN210 18/16 Q1009 NOSIG
  • 212100Z AUTO 15005KT 100V190 CAVOK 19/16 Q1009 NOSIG
  • 212030Z AUTO 13003KT 090V200 CAVOK 20/16 Q1009 NOSIG

TAF TAF LFBT
Valid from the 21 at 18:00 until the 22 at 18:00 UTC


211700Z 2118/2218 VRB02KT CAVOK
BECMG 2204/2206 32006KT 3000 RA BKN010 BKN025
BECMG 2213/2215 VRB02KT 9999 NSW BKN030
TEMPO 2216/2218 3000 -SHRA SCT015TCU BKN020
No reported NOTAMs for that airfield.



MET'MAP, your aeronautical weather chart ! - Copyright ORBIFLY December 2007 - Disclaimer

ORBIFLY MET'MAP TEAM :

Programming & Development : Alexandra Zaïnal
Concept & Development : Baudouin d'Aumeries
Co-Development & Prog : Marc-Olivier Méhu
Technical & hardware support : Manuel Goepfert

Contact : metmap@orbifly.com




SOURCES & CREDITS :

   NOAA